Time;durP1;ratioP1;P1;durP2;ratioP2;P2;SDS_P1;SDS_P2;PMS_P1;PMS_P2;Temp;Humidity;BMP_temperature;BMP_pressure;BME280_temperature;BME280_humidity;BME280_pressure;Samples;Min_cycle;Max_cycle;Signal;HPM_P1;HPM_P2
2023/09/22 00:01:54;;;;;;;;;;;14.20;99.90;;;;;;5032016;28;19917;-68
2023/09/22 00:04:20;;;;;;;;;;;14.10;99.90;;;;;;5030710;28;20018;-68
2023/09/22 00:06:45;;;;;;;;;;;14.10;99.90;;;;;;5032748;28;20320;-68
2023/09/22 00:09:11;;;;;;;;;;;14.10;99.90;;;;;;5030978;28;19921;-68
2023/09/22 00:11:37;;;;;;;;;;;14.20;99.90;;;;;;5031360;28;19917;-68
2023/09/22 00:14:03;;;;;;;;;;;14.20;99.90;;;;;;5031388;28;19916;-68
2023/09/22 00:16:29;;;;;;;;;;;14.10;99.90;;;;;;5014467;28;19999;-68
2023/09/22 00:18:55;;;;;;;;;;;14.20;99.90;;;;;;5031242;28;20390;-68
2023/09/22 00:21:21;;;;;;;;;;;14.10;99.90;;;;;;5031071;28;20009;-68
2023/09/22 00:23:46;;;;;;;;;;;14.20;99.90;;;;;;5031203;28;19917;-68
2023/09/22 00:26:12;;;;;;;;;;;14.20;99.90;;;;;;5029392;28;20011;-67
2023/09/22 00:28:37;;;;;;;;;;;14.30;99.90;;;;;;5031559;28;19924;-68
2023/09/22 00:31:03;;;;;;;;;;;14.20;99.90;;;;;;5031928;28;20297;-68
2023/09/22 00:33:28;;;;;;;;;;;14.30;99.90;;;;;;5012869;28;20485;-68
2023/09/22 00:36:00;;;;;;;;;;;14.10;99.90;;;;;;5029292;28;19948;-68
2023/09/22 00:38:25;;;;;;;;;;;14.30;99.90;;;;;;5030154;28;19921;-68
2023/09/22 00:40:51;;;;;;;;;;;14.20;99.90;;;;;;5029326;28;19917;-68
2023/09/22 00:43:17;;;;;;;;;;;14.10;99.90;;;;;;5030203;28;19923;-68
2023/09/22 00:45:45;;;;;;;;;;;14.20;99.90;;;;;;5029872;28;19917;-68
2023/09/22 00:48:18;;;;;;;;;;;14.10;99.90;;;;;;5029691;28;20368;-68
2023/09/22 00:50:43;;;;;;;;;;;14.20;99.90;;;;;;5030134;28;19917;-67
2023/09/22 00:53:09;;;;;;;;;;;14.20;99.90;;;;;;5030121;28;19923;-67
2023/09/22 00:55:35;;;;;;;;;;;14.20;99.90;;;;;;5029492;28;19968;-68
2023/09/22 00:58:00;;;;;;;;;;;14.20;99.90;;;;;;5030063;28;19970;-67
2023/09/22 01:00:27;;;;;;;;;;;14.20;99.90;;;;;;5029387;28;19920;-68
2023/09/22 01:02:52;;;;;;;;;;;14.10;99.90;;;;;;5030539;28;20321;-67
2023/09/22 01:05:18;;;;;;;;;;;14.20;99.90;;;;;;5029662;28;19917;-67
2023/09/22 01:07:44;;;;;;;;;;;14.20;99.90;;;;;;5028633;28;19921;-67
2023/09/22 01:10:10;;;;;;;;;;;14.30;99.90;;;;;;5029155;28;19917;-66
2023/09/22 01:12:36;;;;;;;;;;;14.20;99.90;;;;;;5029715;28;19948;-66
2023/09/22 01:15:01;;;;;;;;;;;14.30;99.90;;;;;;5029323;28;20055;-66
2023/09/22 01:17:27;;;;;;;;;;;14.30;99.90;;;;;;5029807;28;19924;-66
2023/09/22 01:19:52;;;;;;;;;;;14.20;99.90;;;;;;5029999;28;19924;-67
2023/09/22 01:22:19;;;;;;;;;;;14.20;99.90;;;;;;5028906;28;19917;-67
2023/09/22 01:24:44;;;;;;;;;;;14.30;99.90;;;;;;4992087;28;1113241;-67
2023/09/22 01:27:10;;;;;;;;;;;14.30;99.90;;;;;;5033864;28;19924;-67
2023/09/22 01:29:35;;;;;;;;;;;14.30;99.90;;;;;;5032872;28;19916;-68
2023/09/22 01:32:02;;;;;;;;;;;14.20;99.90;;;;;;5034299;28;19955;-68
2023/09/22 01:34:27;;;;;;;;;;;14.30;99.90;;;;;;5033875;28;20267;-68
2023/09/22 01:36:53;;;;;;;;;;;14.30;99.90;;;;;;5050988;28;19923;-68
2023/09/22 01:39:19;;;;;;;;;;;14.20;99.90;;;;;;5033918;28;20381;-69
2023/09/22 01:41:44;;;;;;;;;;;14.20;99.90;;;;;;5017317;28;19923;-68
2023/09/22 01:44:10;;;;;;;;;;;14.20;99.90;;;;;;5033472;28;20003;-68
2023/09/22 01:46:36;;;;;;;;;;;14.20;99.90;;;;;;5017760;28;19921;-68
2023/09/22 01:49:02;;;;;;;;;;;14.30;99.90;;;;;;5037301;28;19924;-68
2023/09/22 01:51:27;;;;;;;;;;;14.20;99.90;;;;;;5036700;28;19917;-68
2023/09/22 01:53:55;;;;;;;;;;;14.30;99.90;;;;;;5037371;28;19917;-68
2023/09/22 01:56:21;;;;;;;;;;;14.30;99.90;;;;;;5020586;28;19920;-68
2023/09/22 01:58:48;;;;;;;;;;;14.30;99.90;;;;;;5036108;28;19916;-68
2023/09/22 02:01:14;;;;;;;;;;;14.20;99.90;;;;;;5036734;28;19923;-68
2023/09/22 02:03:39;;;;;;;;;;;14.20;99.90;;;;;;5036565;28;19917;-68
2023/09/22 02:06:05;;;;;;;;;;;14.30;99.90;;;;;;5037345;28;19928;-68
2023/09/22 02:08:30;;;;;;;;;;;14.20;99.90;;;;;;5020488;28;19928;-68
2023/09/22 02:10:56;;;;;;;;;;;14.10;99.90;;;;;;5036055;28;20456;-68
2023/09/22 02:13:22;;;;;;;;;;;14.20;99.90;;;;;;5037306;28;20270;-68
2023/09/22 02:15:48;;;;;;;;;;;14.10;99.90;;;;;;5054403;28;20054;-68
2023/09/22 02:18:13;;;;;;;;;;;14.10;99.90;;;;;;5035943;28;20297;-68
2023/09/22 02:20:41;;;;;;;;;;;14.10;99.90;;;;;;5036606;28;20341;-68
2023/09/22 02:23:06;;;;;;;;;;;14.10;99.90;;;;;;5036612;28;19923;-68
2023/09/22 02:25:32;;;;;;;;;;;14.00;99.90;;;;;;5053391;28;20004;-68
2023/09/22 02:27:58;;;;;;;;;;;14.10;99.90;;;;;;5020364;28;19921;-68
2023/09/22 02:30:24;;;;;;;;;;;14.10;99.90;;;;;;5036444;28;19921;-68
2023/09/22 02:32:50;;;;;;;;;;;14.00;99.90;;;;;;5053546;28;20023;-68
2023/09/22 02:35:16;;;;;;;;;;;14.10;99.90;;;;;;5036489;28;19959;-68
2023/09/22 02:37:42;;;;;;;;;;;14.20;99.90;;;;;;5036227;28;19977;-68
2023/09/22 02:40:08;;;;;;;;;;;14.00;99.90;;;;;;5053356;28;19920;-68
2023/09/22 02:42:34;;;;;;;;;;;14.00;99.90;;;;;;5036331;28;19924;-68
2023/09/22 02:44:59;;;;;;;;;;;14.10;99.90;;;;;;5036616;28;19917;-68
2023/09/22 02:47:28;;;;;;;;;;;13.90;99.90;;;;;;5035364;28;19924;-68
2023/09/22 02:49:54;;;;;;;;;;;14.00;99.90;;;;;;5037412;28;19916;-68
2023/09/22 02:52:20;;;;;;;;;;;14.10;99.90;;;;;;5036399;28;19916;-68
2023/09/22 02:54:45;;;;;;;;;;;14.00;99.90;;;;;;5018754;28;19923;-68
2023/09/22 02:57:11;;;;;;;;;;;13.90;99.90;;;;;;5035772;28;19962;-68
2023/09/22 02:59:37;;;;;;;;;;;13.90;99.90;;;;;;5034806;28;19917;-68
2023/09/22 03:02:02;;;;;;;;;;;14.00;99.90;;;;;;5035403;28;19916;-68
2023/09/22 03:04:31;;;;;;;;;;;13.90;99.90;;;;;;5018750;28;19917;-68
2023/09/22 03:06:56;;;;;;;;;;;13.90;99.90;;;;;;5018662;28;20366;-68
2023/09/22 03:09:22;;;;;;;;;;;13.80;99.90;;;;;;5035791;28;19923;-68
2023/09/22 03:11:47;;;;;;;;;;;13.70;99.90;;;;;;5036079;28;19921;-68
2023/09/22 03:14:13;;;;;;;;;;;13.70;99.90;;;;;;5034980;28;19920;-68
2023/09/22 03:16:41;;;;;;;;;;;13.70;99.90;;;;;;5035640;28;20305;-68
2023/09/22 03:19:07;;;;;;;;;;;13.80;99.90;;;;;;5035630;28;19923;-68
2023/09/22 03:21:32;;;;;;;;;;;13.70;99.90;;;;;;5035175;28;19916;-68
2023/09/22 03:23:58;;;;;;;;;;;13.80;99.90;;;;;;5035433;28;20285;-68
2023/09/22 03:26:24;;;;;;;;;;;13.60;99.90;;;;;;5034905;28;20313;-68
2023/09/22 03:28:49;;;;;;;;;;;13.60;99.90;;;;;;5034574;28;19927;-68
2023/09/22 03:31:16;;;;;;;;;;;13.60;99.90;;;;;;5035421;28;20348;-68
2023/09/22 03:33:43;;;;;;;;;;;13.60;99.90;;;;;;5035349;28;19921;-69
2023/09/22 03:36:12;;;;;;;;;;;13.60;99.90;;;;;;5034753;28;19929;-69
2023/09/22 03:38:41;;;;;;;;;;;13.50;99.90;;;;;;5035479;28;19920;-68
2023/09/22 03:41:07;;;;;;;;;;;13.60;99.90;;;;;;5035242;28;19924;-69
2023/09/22 03:43:33;;;;;;;;;;;13.60;99.90;;;;;;5034659;28;19921;-68
2023/09/22 03:45:59;;;;;;;;;;;13.60;99.90;;;;;;5035249;28;20428;-68
2023/09/22 03:48:24;;;;;;;;;;;13.50;99.90;;;;;;5035151;28;19917;-68
2023/09/22 03:50:50;;;;;;;;;;;13.40;99.90;;;;;;5051713;28;19920;-68
2023/09/22 03:53:15;;;;;;;;;;;13.50;99.90;;;;;;5035638;28;20255;-69
2023/09/22 03:55:41;;;;;;;;;;;13.30;99.90;;;;;;5035129;28;19923;-68
2023/09/22 03:58:07;;;;;;;;;;;13.50;99.90;;;;;;5052215;28;19916;-69
2023/09/22 04:00:33;;;;;;;;;;;13.50;99.90;;;;;;5034722;28;19966;-68
2023/09/22 04:02:59;;;;;;;;;;;13.30;99.90;;;;;;5035035;28;19939;-68
2023/09/22 04:05:25;;;;;;;;;;;13.40;99.90;;;;;;5033897;28;20378;-68
2023/09/22 04:07:53;;;;;;;;;;;13.40;99.90;;;;;;5034731;28;20386;-68
2023/09/22 04:10:19;;;;;;;;;;;13.30;99.90;;;;;;5033910;28;19916;-68
2023/09/22 04:12:45;;;;;;;;;;;13.30;99.90;;;;;;5034501;28;19917;-68
2023/09/22 04:15:11;;;;;;;;;;;13.40;99.90;;;;;;5018203;28;19925;-68
2023/09/22 04:17:38;;;;;;;;;;;13.30;99.90;;;;;;5034159;28;19920;-68
2023/09/22 04:20:08;;;;;;;;;;;13.30;99.90;;;;;;5034170;28;19923;-68
2023/09/22 04:22:34;;;;;;;;;;;13.30;99.90;;;;;;5034761;28;19924;-68
2023/09/22 04:25:00;;;;;;;;;;;13.40;99.90;;;;;;5033881;28;19920;-68
2023/09/22 04:27:32;;;;;;;;;;;13.30;99.90;;;;;;5034613;28;19928;-68
2023/09/22 04:29:59;;;;;;;;;;;13.30;99.90;;;;;;5018417;28;20350;-68
2023/09/22 04:32:24;;;;;;;;;;;13.40;99.90;;;;;;5051364;28;20289;-68
2023/09/22 04:34:52;;;;;;;;;;;13.40;99.90;;;;;;5034785;28;20003;-68
2023/09/22 04:37:18;;;;;;;;;;;13.40;99.90;;;;;;5017854;28;19917;-68
2023/09/22 04:39:44;;;;;;;;;;;13.40;99.90;;;;;;5033565;28;19917;-68
2023/09/22 04:42:09;;;;;;;;;;;13.50;99.90;;;;;;5052405;28;19975;-68
2023/09/22 04:44:36;;;;;;;;;;;13.40;99.90;;;;;;5033978;28;19959;-68
2023/09/22 04:47:02;;;;;;;;;;;13.40;99.90;;;;;;5033603;28;19975;-68
2023/09/22 04:49:27;;;;;;;;;;;13.30;99.90;;;;;;5034269;28;19916;-68
2023/09/22 04:51:53;;;;;;;;;;;13.30;99.90;;;;;;5034795;28;19916;-68
2023/09/22 04:54:19;;;;;;;;;;;13.30;99.90;;;;;;5033379;28;20278;-68
2023/09/22 04:56:45;;;;;;;;;;;13.40;99.90;;;;;;5034367;28;19917;-68
2023/09/22 04:59:10;;;;;;;;;;;13.40;99.90;;;;;;5034388;28;20492;-68
2023/09/22 05:01:36;;;;;;;;;;;13.40;99.90;;;;;;5033293;28;20411;-68
2023/09/22 05:04:03;;;;;;;;;;;13.40;99.90;;;;;;5034512;28;19917;-68
2023/09/22 05:06:28;;;;;;;;;;;13.40;99.90;;;;;;5017444;28;20043;-68
2023/09/22 05:08:54;;;;;;;;;;;13.50;99.90;;;;;;5034181;28;20440;-68
2023/09/22 05:11:20;;;;;;;;;;;13.50;99.90;;;;;;5034326;28;19924;-68
2023/09/22 05:13:46;;;;;;;;;;;13.40;99.90;;;;;;5032972;28;19917;-68
2023/09/22 05:16:14;;;;;;;;;;;13.50;99.90;;;;;;5033880;28;19916;-68
2023/09/22 05:18:40;;;;;;;;;;;13.50;99.90;;;;;;5033962;28;19917;-69
2023/09/22 05:21:07;;;;;;;;;;;13.40;99.90;;;;;;5032557;28;20023;-69
2023/09/22 05:23:34;;;;;;;;;;;13.60;99.90;;;;;;5037202;28;19917;-68
2023/09/22 05:26:04;;;;;;;;;;;13.50;99.90;;;;;;5037848;28;20373;-68
2023/09/22 05:28:29;;;;;;;;;;;13.50;99.90;;;;;;5036633;28;19920;-68
2023/09/22 05:30:55;;;;;;;;;;;13.60;99.90;;;;;;5038088;28;20278;-68
2023/09/22 05:33:21;;;;;;;;;;;13.60;99.90;;;;;;5021450;28;19917;-68
2023/09/22 05:35:47;;;;;;;;;;;13.50;99.90;;;;;;5036714;28;20427;-68
2023/09/22 05:38:13;;;;;;;;;;;13.50;99.90;;;;;;5037623;28;19962;-68
2023/09/22 05:40:38;;;;;;;;;;;13.60;99.90;;;;;;5020803;28;19917;-68
2023/09/22 05:43:10;;;;;;;;;;;13.50;99.90;;;;;;5036899;28;19971;-68
2023/09/22 05:45:35;;;;;;;;;;;13.50;99.90;;;;;;5037513;28;20334;-68
2023/09/22 05:48:01;;;;;;;;;;;13.50;99.90;;;;;;5020701;28;20020;-68
2023/09/22 05:50:27;;;;;;;;;;;13.50;99.90;;;;;;5036781;28;19920;-68
2023/09/22 05:52:53;;;;;;;;;;;13.40;99.90;;;;;;5037527;28;19965;-68
2023/09/22 05:55:19;;;;;;;;;;;13.50;99.90;;;;;;5037620;28;19923;-68
2023/09/22 05:57:50;;;;;;;;;;;13.40;99.90;;;;;;5036382;28;19917;-68
2023/09/22 06:00:16;;;;;;;;;;;13.50;99.90;;;;;;5037046;28;19948;-68
2023/09/22 06:02:45;;;;;;;;;;;13.40;99.90;;;;;;5037085;28;20089;-68
2023/09/22 06:05:10;;;;;;;;;;;13.30;99.90;;;;;;5020697;28;19920;-68
2023/09/22 06:07:36;;;;;;;;;;;13.30;99.90;;;;;;5037143;28;19924;-68
2023/09/22 06:10:05;;;;;;;;;;;13.30;99.90;;;;;;5054277;28;19966;-68
2023/09/22 06:12:31;;;;;;;;;;;13.20;99.90;;;;;;5036928;28;20443;-68
2023/09/22 06:14:59;;;;;;;;;;;13.20;99.90;;;;;;5037201;28;20366;-68
2023/09/22 06:17:25;;;;;;;;;;;13.20;99.90;;;;;;5018705;28;19917;-68
2023/09/22 06:19:51;;;;;;;;;;;13.10;99.90;;;;;;5054390;28;19956;-68
2023/09/22 06:22:17;;;;;;;;;;;13.10;99.90;;;;;;5036134;28;19968;-70
2023/09/22 06:24:42;;;;;;;;;;;13.10;99.90;;;;;;5032185;28;19921;-70
2023/09/22 06:27:08;;;;;;;;;;;13.10;99.90;;;;;;5014368;28;19921;-70
2023/09/22 06:29:33;;;;;;;;;;;13.20;99.90;;;;;;5033349;28;19927;-70
2023/09/22 06:31:59;;;;;;;;;;;13.20;99.90;;;;;;5033103;28;19923;-70
2023/09/22 06:34:25;;;;;;;;;;;13.20;99.90;;;;;;5033762;28;20039;-70
2023/09/22 06:36:50;;;;;;;;;;;13.10;99.90;;;;;;5028913;28;19925;-70
2023/09/22 06:39:16;;;;;;;;;;;13.10;99.90;;;;;;5032441;28;19927;-70
2023/09/22 06:41:42;;;;;;;;;;;13.20;99.90;;;;;;5051195;28;20424;-70
2023/09/22 06:44:08;;;;;;;;;;;13.20;99.90;;;;;;5031432;28;19967;-70
2023/09/22 06:46:35;;;;;;;;;;;13.20;99.90;;;;;;5032995;28;19974;-74
2023/09/22 06:49:07;;;;;;;;;;;13.30;99.90;;;;;;5033880;28;19925;-74
2023/09/22 06:51:33;;;;;;;;;;;13.30;99.90;;;;;;5033934;28;20015;-74
2023/09/22 06:53:59;;;;;;;;;;;13.30;99.90;;;;;;5032849;28;20370;-74
2023/09/22 06:56:25;;;;;;;;;;;13.40;99.90;;;;;;5016793;28;19920;-74
2023/09/22 06:58:53;;;;;;;;;;;13.40;99.90;;;;;;5033073;28;20078;-74
2023/09/22 07:01:19;;;;;;;;;;;13.40;99.90;;;;;;5032137;28;20386;-74
2023/09/22 07:03:45;;;;;;;;;;;13.40;99.90;;;;;;5033233;28;19960;-74
2023/09/22 07:06:14;;;;;;;;;;;13.40;99.90;;;;;;5029410;28;20083;-74
2023/09/22 07:08:41;;;;;;;;;;;13.40;99.90;;;;;;5027422;28;19927;-75
2023/09/22 07:11:10;;;;;;;;;;;13.40;99.90;;;;;;5046842;28;19960;-74
2023/09/22 07:13:36;;;;;;;;;;;13.40;99.90;;;;;;5023480;28;19924;-74
2023/09/22 07:16:02;;;;;;;;;;;13.40;99.90;;;;;;5016802;28;19960;-74
2023/09/22 07:18:28;;;;;;;;;;;13.40;99.90;;;;;;5050719;28;20014;-74
2023/09/22 07:20:54;;;;;;;;;;;13.50;99.90;;;;;;5032859;28;19967;-74
2023/09/22 07:23:20;;;;;;;;;;;13.40;99.90;;;;;;5033221;28;19925;-74
2023/09/22 07:25:56;;;;;;;;;;;13.50;99.90;;;;;;5036648;28;20012;-73
2023/09/22 07:28:21;;;;;;;;;;;13.50;99.90;;;;;;5030338;28;19968;-74
2023/09/22 07:30:47;;;;;;;;;;;13.60;99.90;;;;;;5040327;28;19963;-73
2023/09/22 07:33:13;;;;;;;;;;;13.60;99.90;;;;;;5030104;28;20035;-71
2023/09/22 07:35:39;;;;;;;;;;;13.50;99.90;;;;;;5029508;28;20396;-71
2023/09/22 07:38:04;;;;;;;;;;;13.60;99.90;;;;;;5038327;28;20285;-72
2023/09/22 07:40:30;;;;;;;;;;;13.50;99.90;;;;;;5029810;28;19940;-73
2023/09/22 07:42:55;;;;;;;;;;;13.50;99.90;;;;;;5027710;28;19943;-72
2023/09/22 07:45:21;;;;;;;;;;;13.60;99.90;;;;;;5029694;28;19921;-72
2023/09/22 07:47:47;;;;;;;;;;;13.60;99.90;;;;;;5029823;28;19927;-71
2023/09/22 07:50:13;;;;;;;;;;;13.70;99.90;;;;;;5013448;28;19944;-72
2023/09/22 07:52:39;;;;;;;;;;;13.80;99.90;;;;;;5029718;28;20366;-72
2023/09/22 07:55:05;;;;;;;;;;;13.80;99.90;;;;;;5019244;28;19974;-72
2023/09/22 07:57:31;;;;;;;;;;;13.80;99.90;;;;;;5017324;28;19921;-72
2023/09/22 08:00:00;;;;;;;;;;;13.80;99.90;;;;;;5029015;28;20294;-72
2023/09/22 08:02:25;;;;;;;;;;;13.90;99.90;;;;;;5018000;28;19998;-72
2023/09/22 08:04:56;;;;;;;;;;;14.00;99.90;;;;;;5025334;28;19925;-71
2023/09/22 08:07:21;;;;;;;;;;;14.00;99.90;;;;;;5030462;28;19932;-71
2023/09/22 08:09:47;;;;;;;;;;;14.10;99.90;;;;;;5030782;28;19925;-73
2023/09/22 08:12:14;;;;;;;;;;;14.10;99.90;;;;;;5018695;28;19960;-75
2023/09/22 08:14:41;;;;;;;;;;;14.20;99.90;;;;;;5022972;28;20374;-75
2023/09/22 08:17:07;;;;;;;;;;;14.20;99.90;;;;;;5030283;28;19921;-74
2023/09/22 08:19:33;;;;;;;;;;;14.30;99.90;;;;;;5010736;28;19924;-75
2023/09/22 08:21:59;;;;;;;;;;;14.30;99.90;;;;;;5024716;28;19916;-75
2023/09/22 08:24:25;;;;;;;;;;;14.30;99.90;;;;;;5037922;28;19924;-75
2023/09/22 08:26:50;;;;;;;;;;;14.50;99.90;;;;;;5034575;28;20122;-75
2023/09/22 08:29:16;;;;;;;;;;;14.60;99.90;;;;;;5035742;28;19967;-74
2023/09/22 08:31:42;;;;;;;;;;;14.70;99.90;;;;;;5032065;28;20591;-70
2023/09/22 08:34:07;;;;;;;;;;;14.80;99.90;;;;;;5033408;28;20000;-69
2023/09/22 08:36:33;;;;;;;;;;;14.80;99.90;;;;;;5033976;28;19917;-71
2023/09/22 08:38:59;;;;;;;;;;;14.90;99.90;;;;;;5035005;28;19916;-71
2023/09/22 08:41:26;;;;;;;;;;;14.90;99.90;;;;;;5034571;28;19917;-70
2023/09/22 08:43:57;;;;;;;;;;;14.90;99.90;;;;;;5034785;28;20380;-70
2023/09/22 08:46:23;;;;;;;;;;;15.00;99.90;;;;;;5033833;28;19921;-70
2023/09/22 08:48:50;;;;;;;;;;;15.00;99.90;;;;;;5034411;28;19968;-71
2023/09/22 08:51:15;;;;;;;;;;;15.00;99.90;;;;;;5034450;28;19916;-71
2023/09/22 08:53:42;;;;;;;;;;;15.00;99.90;;;;;;5033701;28;19920;-71
2023/09/22 08:56:09;;;;;;;;;;;15.10;99.90;;;;;;5034468;28;20009;-70
2023/09/22 08:58:35;;;;;;;;;;;15.20;99.90;;;;;;5038067;28;19923;-70
2023/09/22 09:01:02;;;;;;;;;;;15.30;99.90;;;;;;5039461;28;19951;-70
2023/09/22 09:03:28;;;;;;;;;;;15.40;99.90;;;;;;5037961;28;20369;-71
2023/09/22 09:06:04;;;;;;;;;;;15.40;99.90;;;;;;5037519;28;19917;-70
2023/09/22 09:08:29;;;;;;;;;;;15.30;99.90;;;;;;5021879;28;20328;-71
2023/09/22 09:10:57;;;;;;;;;;;15.20;99.90;;;;;;5038711;28;19916;-71
2023/09/22 09:13:27;;;;;;;;;;;15.30;99.90;;;;;;5037462;28;20266;-71
2023/09/22 09:15:54;;;;;;;;;;;15.30;99.90;;;;;;5038523;28;19920;-72
2023/09/22 09:18:20;;;;;;;;;;;15.20;99.90;;;;;;5038212;28;20349;-71
2023/09/22 09:20:47;;;;;;;;;;;15.20;99.90;;;;;;5055096;28;19969;-72
2023/09/22 09:23:13;;;;;;;;;;;15.10;99.90;;;;;;5038039;28;20271;-72
2023/09/22 09:25:43;;;;;;;;;;;15.10;99.90;;;;;;5034523;28;19920;-72
2023/09/22 09:28:10;;;;;;;;;;;15.20;99.90;;;;;;5034883;28;19921;-72
2023/09/22 09:30:36;;;;;;;;;;;15.20;99.90;;;;;;5034394;28;19916;-72
2023/09/22 09:33:12;;;;;;;;;;;15.20;99.90;;;;;;5034733;28;19979;-71
2023/09/22 09:35:39;;;;;;;;;;;15.30;99.90;;;;;;5034826;28;20083;-73
2023/09/22 09:38:05;;;;;;;;;;;15.40;99.90;;;;;;5018300;28;19917;-75
2023/09/22 09:40:32;;;;;;;;;;;15.50;99.90;;;;;;5034098;28;20366;-75
2023/09/22 09:42:58;;;;;;;;;;;15.60;99.90;;;;;;5033787;28;19924;-76
2023/09/22 09:45:24;;;;;;;;;;;15.70;99.90;;;;;;5034277;28;19921;-75
2023/09/22 09:47:54;;;;;;;;;;;15.80;99.90;;;;;;5033307;28;19973;-76
2023/09/22 09:50:20;;;;;;;;;;;15.90;99.90;;;;;;5034005;28;19917;-74
2023/09/22 09:52:48;;;;;;;;;;;15.90;99.90;;;;;;5034152;28;19924;-75
2023/09/22 09:55:14;;;;;;;;;;;15.90;99.90;;;;;;5033498;28;19917;-74
2023/09/22 09:57:42;;;;;;;;;;;16.00;99.90;;;;;;5034138;28;20244;-74
2023/09/22 10:00:29;;;;;;;;;;;16.00;99.90;;;;;;5033983;28;20396;-75
2023/09/22 10:02:57;;;;;;;;;;;15.80;99.90;;;;;;5032885;28;19963;-75
2023/09/22 10:05:23;;;;;;;;;;;15.60;99.90;;;;;;5017367;28;19967;-74
2023/09/22 10:07:56;;;;;;;;;;;15.60;99.90;;;;;;5033258;28;19921;-75
2023/09/22 10:10:22;;;;;;;;;;;15.60;99.90;;;;;;5033072;28;19928;-75
2023/09/22 10:12:48;;;;;;;;;;;15.60;99.90;;;;;;5033702;28;19928;-76
2023/09/22 10:15:14;;;;;;;;;;;15.60;99.90;;;;;;5033666;28;19917;-76
2023/09/22 10:17:39;;;;;;;;;;;15.70;99.90;;;;;;5033128;28;19917;-75
2023/09/22 10:20:11;;;;;;;;;;;15.70;99.90;;;;;;5033811;28;19924;-76
2023/09/22 10:22:37;;;;;;;;;;;15.70;99.90;;;;;;5033424;28;19917;-72
2023/09/22 10:25:09;;;;;;;;;;;15.70;99.90;;;;;;5018308;28;19971;-75
2023/09/22 10:28:03;;;;;;;;;;;15.70;99.90;;;;;;5036757;28;19927;-75
2023/09/22 10:30:44;;;;;;;;;;;15.60;99.90;;;;;;5032870;28;19999;-75
2023/09/22 10:33:15;;;;;;;;;;;15.70;99.90;;;;;;5036926;28;20293;-75
2023/09/22 10:35:41;;;;;;;;;;;15.80;99.90;;;;;;5036641;28;20343;-76
2023/09/22 10:38:09;;;;;;;;;;;15.80;99.90;;;;;;5036132;28;19920;-76
2023/09/22 10:40:35;;;;;;;;;;;15.80;99.90;;;;;;5036394;28;20361;-75
2023/09/22 10:43:02;;;;;;;;;;;15.80;99.90;;;;;;5036954;28;20046;-75
2023/09/22 10:45:29;;;;;;;;;;;15.70;99.90;;;;;;5019249;28;19966;-75
2023/09/22 10:47:57;;;;;;;;;;;15.80;99.90;;;;;;5020030;28;19921;-75
2023/09/22 10:50:26;;;;;;;;;;;15.70;99.90;;;;;;5019555;28;20359;-75
2023/09/22 10:52:56;;;;;;;;;;;15.70;99.90;;;;;;5036089;28;19966;-67
2023/09/22 10:55:42;;;;;;;;;;;15.50;99.90;;;;;;5036926;28;19963;-74
2023/09/22 10:58:08;;;;;;;;;;;15.40;99.90;;;;;;5015829;28;19917;-71
2023/09/22 11:00:45;;;;;;;;;;;15.50;99.90;;;;;;5013522;28;20423;-72
2023/09/22 11:03:15;;;;;;;;;;;15.50;99.90;;;;;;5051605;28;20381;-71
2023/09/22 11:05:42;;;;;;;;;;;15.60;99.90;;;;;;5032217;28;20326;-72
2023/09/22 11:08:12;;;;;;;;;;;15.70;99.90;;;;;;5033209;28;19924;-71
2023/09/22 11:10:37;;;;;;;;;;;15.80;99.90;;;;;;5050918;28;20301;-70
2023/09/22 11:13:03;;;;;;;;;;;15.90;99.90;;;;;;5015084;28;19921;-72
2023/09/22 11:15:29;;;;;;;;;;;15.90;99.90;;;;;;5032244;28;19920;-72
2023/09/22 11:17:55;;;;;;;;;;;15.90;99.90;;;;;;5031013;28;20447;-71
2023/09/22 11:20:26;;;;;;;;;;;15.90;99.90;;;;;;5026233;28;19924;-72
2023/09/22 11:22:52;;;;;;;;;;;15.90;99.90;;;;;;5015800;28;19932;-71
2023/09/22 11:25:18;;;;;;;;;;;16.00;99.90;;;;;;5048237;28;19931;-72
2023/09/22 11:27:48;;;;;;;;;;;16.10;99.90;;;;;;5025362;28;20370;-72
2023/09/22 11:30:19;;;;;;;;;;;16.20;99.90;;;;;;5027877;28;19920;-71
2023/09/22 11:32:46;;;;;;;;;;;16.30;99.90;;;;;;5031664;28;19990;-72
2023/09/22 11:35:27;;;;;;;;;;;16.30;99.90;;;;;;5012838;28;19924;-71
2023/09/22 11:37:52;;;;;;;;;;;16.40;99.90;;;;;;5032788;28;19920;-71
2023/09/22 11:40:18;;;;;;;;;;;16.50;99.90;;;;;;5032892;28;19920;-72
2023/09/22 11:42:47;;;;;;;;;;;16.50;99.90;;;;;;5032385;28;19979;-71
2023/09/22 11:45:18;;;;;;;;;;;16.30;99.90;;;;;;5033491;28;19920;-70
2023/09/22 11:47:44;;;;;;;;;;;16.40;99.90;;;;;;5050079;28;19924;-67
2023/09/22 11:50:19;;;;;;;;;;;16.40;99.90;;;;;;5032889;28;19924;-67
2023/09/22 11:52:45;;;;;;;;;;;16.50;99.90;;;;;;5032818;28;19923;-68
2023/09/22 11:55:10;;;;;;;;;;;16.50;99.90;;;;;;5032095;28;20404;-72
2023/09/22 11:57:36;;;;;;;;;;;16.50;99.90;;;;;;5032590;28;19917;-71
2023/09/22 12:00:02;;;;;;;;;;;16.50;99.90;;;;;;5050708;28;19928;-69
2023/09/22 12:02:28;;;;;;;;;;;16.40;99.90;;;;;;5049652;28;20369;-66
2023/09/22 12:04:53;;;;;;;;;;;16.30;99.90;;;;;;5032997;28;19967;-67
2023/09/22 12:07:19;;;;;;;;;;;16.30;99.90;;;;;;5016423;28;19921;-70
2023/09/22 12:09:45;;;;;;;;;;;16.40;99.90;;;;;;5012612;28;19921;-69
2023/09/22 12:12:12;;;;;;;;;;;16.50;99.90;;;;;;5026738;28;19987;-69
2023/09/22 12:14:37;;;;;;;;;;;16.60;99.90;;;;;;5032551;28;19923;-69
2023/09/22 12:17:03;;;;;;;;;;;16.70;99.90;;;;;;5049689;28;20270;-69
2023/09/22 12:19:28;;;;;;;;;;;16.80;99.90;;;;;;5030934;28;20023;-69
2023/09/22 12:21:54;;;;;;;;;;;17.00;99.90;;;;;;5031800;28;19999;-68
2023/09/22 12:24:19;;;;;;;;;;;17.00;99.90;;;;;;5029789;28;19917;-67
2023/09/22 12:26:46;;;;;;;;;;;17.10;99.90;;;;;;5028962;28;19928;-68
2023/09/22 12:29:13;;;;;;;;;;;17.00;99.90;;;;;;5028957;28;19917;-70
2023/09/22 12:31:39;;;;;;;;;;;17.00;99.90;;;;;;5027550;28;19921;-67
2023/09/22 12:34:04;;;;;;;;;;;16.90;99.90;;;;;;5027944;28;19928;-70
2023/09/22 12:36:30;;;;;;;;;;;16.90;99.90;;;;;;5027347;28;19924;-69
2023/09/22 12:38:55;;;;;;;;;;;16.80;99.90;;;;;;5012072;28;19921;-67
2023/09/22 12:41:21;;;;;;;;;;;16.80;99.90;;;;;;5012133;28;19979;-67
2023/09/22 12:43:47;;;;;;;;;;;16.80;99.90;;;;;;5027574;28;20398;-67
2023/09/22 12:46:12;;;;;;;;;;;16.90;99.90;;;;;;5011989;28;19924;-66
2023/09/22 12:48:39;;;;;;;;;;;16.90;99.90;;;;;;5011612;28;19921;-68
2023/09/22 12:51:06;;;;;;;;;;;16.90;99.90;;;;;;5027286;28;19943;-68
2023/09/22 12:53:31;;;;;;;;;;;16.90;99.90;;;;;;5027964;28;19921;-69
2023/09/22 12:55:57;;;;;;;;;;;16.90;99.90;;;;;;5012228;28;20275;-69
2023/09/22 12:58:29;;;;;;;;;;;16.80;99.90;;;;;;5026876;28;19927;-69
2023/09/22 13:00:58;;;;;;;;;;;16.80;99.90;;;;;;5023635;28;19928;-69
2023/09/22 13:03:27;;;;;;;;;;;16.90;99.90;;;;;;5019396;28;19921;-69
2023/09/22 13:05:53;;;;;;;;;;;16.80;99.90;;;;;;5023219;28;20366;-69
2023/09/22 13:08:21;;;;;;;;;;;16.90;99.90;;;;;;5028981;28;19925;-69
2023/09/22 13:10:47;;;;;;;;;;;16.80;99.90;;;;;;5029136;28;20004;-69
2023/09/22 13:13:13;;;;;;;;;;;16.80;99.90;;;;;;5028046;28;20360;-69
2023/09/22 13:15:44;;;;;;;;;;;16.80;99.90;;;;;;5027042;28;19921;-70
2023/09/22 13:18:10;;;;;;;;;;;16.90;99.90;;;;;;5027847;28;19921;-69
2023/09/22 13:20:37;;;;;;;;;;;16.90;99.90;;;;;;5028178;28;19928;-76
2023/09/22 13:23:04;;;;;;;;;;;16.80;99.90;;;;;;5026349;28;20389;-75
2023/09/22 13:25:35;;;;;;;;;;;16.80;99.90;;;;;;5027186;28;19931;-75
2023/09/22 13:28:00;;;;;;;;;;;16.90;99.90;;;;;;5027708;28;19929;-75
2023/09/22 13:30:26;;;;;;;;;;;16.80;99.90;;;;;;5026221;28;19927;-75
2023/09/22 13:32:52;;;;;;;;;;;16.90;99.90;;;;;;5004373;28;19929;-75
2023/09/22 13:35:18;;;;;;;;;;;16.90;99.90;;;;;;5022241;28;19925;-75
2023/09/22 13:37:43;;;;;;;;;;;16.90;99.90;;;;;;5027170;28;20369;-77
2023/09/22 13:40:11;;;;;;;;;;;16.80;99.90;;;;;;5026147;28;19921;-76
2023/09/22 13:42:39;;;;;;;;;;;16.80;99.90;;;;;;5028390;28;19947;-75
2023/09/22 13:45:07;;;;;;;;;;;16.70;99.90;;;;;;5031406;28;19979;-74
2023/09/22 13:50:51;;;;;;;5.45;1.27;;;16.70;99.90;;;;;;5086726;27;20443;-72
2023/09/22 13:53:16;;;;;;;4.53;1.65;;;16.80;99.90;;;;;;5083660;28;20052;-74
2023/09/22 13:55:42;;;;;;;2.65;1.02;;;16.70;99.90;;;;;;5078141;28;20053;-68
2023/09/22 13:58:09;;;;;;;3.20;0.77;;;16.80;99.90;;;;;;5078798;28;20123;-66
2023/09/22 14:00:35;;;;;;;2.90;0.90;;;16.70;99.90;;;;;;5072114;28;20044;-66
2023/09/22 14:03:01;;;;;;;2.63;0.70;;;16.70;99.90;;;;;;5050584;28;20091;-68
2023/09/22 14:05:28;;;;;;;2.72;0.70;;;16.60;99.90;;;;;;5067324;28;20043;-67
2023/09/22 14:07:54;;;;;;;1.58;0.60;;;16.60;99.90;;;;;;5058106;28;20140;-67
2023/09/22 14:10:23;;;;;;;2.33;0.90;;;16.60;99.90;;;;;;5047801;28;20127;-65
2023/09/22 14:12:48;;;;;;;1.42;0.55;;;16.60;99.90;;;;;;5051113;28;20090;-65
2023/09/22 14:15:14;;;;;;;1.20;0.60;;;16.60;99.90;;;;;;5063633;28;20048;-65